createdAt,value
2019-05-01T18:41:37.724Z,8.08
2019-05-01T18:44:10.005Z,6.53
2019-05-01T18:46:33.861Z,7.00
2019-05-01T18:49:00.627Z,7.30
2019-05-01T18:51:26.770Z,7.65
2019-05-01T18:53:57.484Z,6.97
2019-05-01T18:56:21.206Z,8.33
2019-05-01T18:58:47.502Z,9.00
2019-05-01T19:01:14.070Z,7.80
2019-05-01T19:03:42.492Z,7.67
2019-05-01T19:06:08.447Z,8.55
2019-05-01T19:08:34.732Z,8.68
2019-05-01T19:11:11.680Z,8.33
2019-05-01T19:13:29.075Z,8.28
2019-05-01T19:15:55.226Z,8.10
2019-05-01T19:18:21.349Z,7.10
2019-05-01T19:20:58.917Z,8.78
2019-05-01T19:23:16.064Z,13.25
2019-05-01T19:25:44.048Z,9.93
2019-05-01T19:28:12.183Z,7.72
2019-05-01T19:30:38.486Z,7.87
2019-05-01T19:33:04.691Z,7.33
2019-05-01T19:35:34.124Z,9.10
2019-05-01T19:37:59.068Z,8.13
2019-05-01T19:40:30.408Z,7.60
2019-05-01T19:42:58.084Z,11.90
2019-05-01T19:45:21.853Z,12.20
2019-05-01T19:47:48.085Z,8.78
2019-05-01T19:50:14.669Z,8.63
2019-05-01T19:52:40.816Z,16.10
2019-05-01T19:55:07.739Z,13.13
2019-05-01T19:57:34.077Z,8.88
2019-05-01T20:00:00.159Z,10.48
2019-05-01T20:02:26.383Z,9.20
2019-05-01T20:04:52.571Z,8.10
2019-05-01T20:07:21.528Z,10.55
2019-05-01T20:09:56.704Z,18.07
2019-05-01T20:12:15.095Z,10.40
2019-05-01T20:14:41.322Z,9.80
2019-05-01T20:17:10.095Z,12.20
2019-05-01T20:19:35.533Z,12.13
2019-05-01T20:22:01.731Z,12.10
2019-05-01T20:24:27.812Z,14.53
2019-05-01T20:27:29.276Z,10.25
2019-05-01T20:29:55.315Z,12.03
2019-05-01T20:32:26.331Z,8.50
2019-05-01T20:34:52.803Z,8.13
2019-05-01T20:37:18.414Z,11.80
2019-05-01T20:39:44.566Z,8.60
2019-05-01T20:42:10.733Z,11.00
2019-05-01T20:44:39.756Z,10.20
2019-05-01T20:47:05.786Z,11.15
2019-05-01T20:49:31.908Z,9.83
2019-05-01T20:51:57.926Z,13.53
2019-05-01T20:54:24.051Z,10.30
2019-05-01T20:56:51.884Z,7.28
2019-05-01T20:59:18.225Z,7.60
2019-05-01T21:01:44.459Z,10.10
2019-05-01T21:04:12.403Z,12.45
2019-05-01T21:06:43.732Z,11.25
2019-05-01T21:09:15.594Z,9.00
2019-05-01T21:11:47.377Z,13.55
2019-05-01T21:14:22.002Z,12.53
2019-05-01T21:16:44.023Z,12.03
2019-05-01T21:19:10.254Z,11.97
2019-05-01T21:21:36.430Z,10.40
2019-05-01T21:24:03.667Z,9.58
2019-05-01T21:26:29.995Z,8.70
2019-05-01T21:28:56.605Z,10.43
2019-05-01T21:31:24.054Z,10.03
2019-05-01T21:33:50.665Z,9.20
2019-05-01T21:36:16.978Z,8.55
2019-05-01T21:38:43.182Z,8.18
2019-05-01T21:41:09.338Z,10.98
2019-05-01T21:43:37.096Z,8.98
2019-05-01T21:46:04.047Z,7.65
2019-05-01T21:48:30.369Z,8.73
2019-05-01T21:50:58.078Z,9.08
2019-05-01T21:53:24.512Z,9.23
2019-05-01T21:55:50.729Z,8.60
2019-05-01T21:58:21.071Z,7.95
2019-05-01T22:00:45.639Z,7.45
2019-05-01T22:03:11.847Z,8.38
2019-05-01T22:05:39.700Z,8.48
2019-05-01T22:08:06.028Z,9.53
2019-05-01T22:10:32.189Z,10.55
2019-05-01T22:12:58.647Z,10.45
2019-05-01T22:15:42.063Z,11.43
2019-05-01T22:18:27.274Z,12.53
2019-05-01T22:21:07.617Z,12.58
2019-05-01T22:23:50.858Z,12.37
2019-05-01T22:26:17.470Z,15.50
2019-05-01T22:28:50.129Z,17.82
2019-05-01T22:31:36.420Z,18.50
2019-05-01T22:34:07.402Z,20.00
2019-05-01T22:36:33.626Z,20.77
2019-05-01T22:39:02.192Z,22.15
2019-05-01T22:41:27.881Z,22.27
2019-05-01T22:43:54.013Z,23.60
2019-05-01T22:46:22.050Z,23.52
2019-05-01T22:48:48.169Z,22.22
2019-05-01T22:51:16.260Z,22.60
2019-05-01T22:53:42.376Z,21.77
2019-05-01T22:56:08.402Z,21.95
2019-05-01T22:58:34.440Z,20.85
2019-05-01T23:01:00.967Z,20.88
2019-05-01T23:03:29.016Z,21.25
2019-05-01T23:05:55.254Z,13.93
2019-05-01T23:08:21.382Z,10.95
2019-05-01T23:10:48.563Z,17.82
2019-05-01T23:13:14.836Z,20.77
2019-05-01T23:15:41.064Z,20.37
2019-05-01T23:18:10.562Z,20.35
2019-05-01T23:20:39.095Z,20.48
2019-05-01T23:23:03.652Z,20.02
2019-05-01T23:25:29.777Z,20.17
2019-05-01T23:27:59.647Z,18.55
2019-05-01T23:30:24.151Z,20.15
2019-05-01T23:32:50.292Z,21.33
2019-05-01T23:35:16.411Z,19.27
2019-05-01T23:37:42.542Z,18.98
2019-05-01T23:40:10.851Z,19.17
2019-05-01T23:42:37.491Z,16.75
2019-05-01T23:45:05.022Z,17.32
2019-05-01T23:47:31.147Z,17.77
2019-05-01T23:49:57.306Z,15.80
2019-05-01T23:52:23.462Z,14.20
2019-05-01T23:54:49.602Z,14.43
2019-05-01T23:57:18.863Z,15.32
2019-05-01T23:59:43.988Z,14.28
